Time;durP1;ratioP1;P1;durP2;ratioP2;P2;SDS_P1;SDS_P2;PMS_P1;PMS_P2;Temp;Humidity;BMP_temperature;BMP_pressure;BME280_temperature;BME280_humidity;BME280_pressure;Samples;Min_cycle;Max_cycle;Signal;HPM_P1;HPM_P2
2022/09/05 00:02:01;;;;;;;3.72;2.30;;;;;;;18.58;61.83;97637.53;4966268;28;20228;-74
2022/09/05 00:04:36;;;;;;;3.00;1.92;;;;;;;18.60;61.68;97635.38;4945319;28;20289;-75
2022/09/05 00:07:07;;;;;;;4.20;2.15;;;;;;;18.68;62.44;97628.69;4967517;28;20277;-74
2022/09/05 00:09:36;;;;;;;2.08;1.88;;;;;;;18.61;61.96;97625.59;4948111;28;20290;-74
2022/09/05 00:12:04;;;;;;;2.78;1.73;;;;;;;18.62;61.67;97635.88;4954655;28;20264;-75
2022/09/05 00:14:35;;;;;;;2.53;1.85;;;;;;;18.54;61.74;97631.22;4944822;28;20212;-74
2022/09/05 00:17:13;;;;;;;3.15;1.90;;;;;;;18.36;62.45;97632.78;4971697;28;20168;-74
2022/09/05 00:19:39;;;;;;;2.60;2.08;;;;;;;18.54;61.85;97636.50;4976288;28;20157;-74
2022/09/05 00:22:35;;;;;;;2.55;1.90;;;;;;;18.37;62.53;97630.94;4968735;28;20187;-75
2022/09/05 00:25:14;;;;;;;3.13;2.17;;;;;;;18.40;62.31;97636.41;4958266;28;20220;-74
2022/09/05 00:28:15;;;;;;;3.55;2.05;;;;;;;18.34;62.73;97633.06;4957814;28;20200;-75
2022/09/05 00:30:59;;;;;;;3.60;1.88;;;;;;;18.33;62.32;97622.81;4964319;28;20168;-74
2022/09/05 00:33:41;;;;;;;2.20;2.00;;;;;;;18.32;62.75;97618.63;4959446;28;20270;-75
2022/09/05 00:36:13;;;;;;;2.40;2.00;;;;;;;18.38;62.56;97614.06;4956367;28;20287;-74
2022/09/05 00:38:40;;;;;;;2.65;2.15;;;;;;;18.39;62.81;97615.66;4966772;28;20176;-75
2022/09/05 00:41:10;;;;;;;2.22;2.03;;;;;;;18.26;62.72;97615.25;4957698;28;20295;-74
2022/09/05 00:43:44;;;;;;;1.90;1.80;;;;;;;18.27;62.61;97613.41;4938028;28;20212;-75
2022/09/05 00:46:21;;;;;;;3.58;2.22;;;;;;;18.24;62.92;97612.13;4955225;28;20176;-74
2022/09/05 00:49:11;;;;;;;2.20;1.92;;;;;;;18.25;63.06;97604.97;4966868;28;20187;-74
2022/09/05 00:51:37;;;;;;;2.28;2.00;;;;;;;18.39;62.67;97607.72;4975878;28;20208;-75
2022/09/05 00:54:24;;;;;;;2.42;1.90;;;;;;;18.20;63.08;97605.06;4973417;28;20172;-74
2022/09/05 00:56:56;;;;;;;1.83;1.73;;;;;;;18.30;62.64;97604.91;4960468;28;20306;-74
2022/09/05 00:59:27;;;;;;;2.17;1.98;;;;;;;18.24;62.77;97611.34;4932649;28;20308;-74
2022/09/05 01:02:08;;;;;;;1.80;1.70;;;;;;;18.18;62.88;97602.72;4971017;28;20208;-75
2022/09/05 01:05:01;;;;;;;2.47;1.80;;;;;;;18.23;61.87;97605.28;4965476;28;20265;-75
2022/09/05 01:07:46;;;;;;;2.38;2.17;;;;;;;18.22;62.03;97602.94;4974208;28;20191;-75
2022/09/05 01:10:18;;;;;;;;;;;;;;;18.15;62.51;97606.69;4986297;28;20161;-76
2022/09/05 01:13:11;;;;;;;2.78;2.00;;;;;;;18.19;61.98;97609.53;4969518;28;20037;-76
2022/09/05 01:16:06;;;;;;;2.35;1.98;;;;;;;18.27;61.79;97610.78;4931556;28;20274;-75
2022/09/05 01:18:59;;;;;;;2.40;1.93;;;;;;;18.20;62.34;97612.97;4956936;28;20195;-76
2022/09/05 01:22:02;;;;;;;3.10;1.80;;;;;;;18.19;62.58;97614.81;4955178;28;20224;-75
2022/09/05 01:24:57;;;;;;;3.47;1.77;;;;;;;17.95;62.62;97605.09;4957644;28;20700;-75
2022/09/05 01:27:57;;;;;;;2.20;1.98;;;;;;;18.05;62.71;97612.09;4977064;28;20379;-75
2022/09/05 01:30:29;;;;;;;3.95;2.08;;;;;;;18.03;62.39;97605.53;4950105;28;20164;-75
2022/09/05 01:33:17;;;;;;;3.70;2.17;;;;;;;17.99;62.60;97610.56;4932749;28;20740;-75
2022/09/05 01:35:49;;;;;;;2.75;2.05;;;;;;;17.96;62.55;97605.88;4950274;28;20198;-75
2022/09/05 01:38:22;;;;;;;2.15;1.83;;;;;;;17.93;62.74;97606.44;4950796;28;20108;-75
2022/09/05 01:41:04;;;;;;;2.10;1.90;;;;;;;17.92;62.85;97600.41;4983351;28;20270;-75
2022/09/05 01:43:57;;;;;;;2.08;1.90;;;;;;;17.87;62.96;97607.56;4947444;28;20714;-75
2022/09/05 01:46:35;;;;;;;2.65;1.95;;;;;;;17.85;62.90;97604.38;4967106;28;20652;-76
2022/09/05 01:49:42;;;;;;;2.20;1.73;;;;;;;17.79;63.27;97601.81;4966611;28;20207;-75
2022/09/05 01:52:19;;;;;;;2.50;2.30;;;;;;;17.93;62.59;97598.53;4942023;28;20163;-75
2022/09/05 01:55:06;;;;;;;1.98;1.85;;;;;;;17.70;62.45;97611.41;4956377;28;20191;-75
2022/09/05 01:58:08;;;;;;;2.15;1.65;;;;;;;17.67;62.82;97609.31;4957995;28;20627;-76
2022/09/05 02:00:42;;;;;;;3.17;1.80;;;;;;;17.75;63.24;97603.44;4943574;28;20212;-75
2022/09/05 02:03:18;;;;;;;2.13;1.92;;;;;;;17.73;62.86;97608.19;4965579;28;20499;-77
2022/09/05 02:06:12;;;;;;;2.20;2.00;;;;;;;17.62;63.02;97609.38;4946595;28;20306;-77
2022/09/05 02:08:46;;;;;;;2.55;2.00;;;;;;;17.79;63.27;97612.34;4958549;28;20094;-77
2022/09/05 02:11:13;;;;;;;1.98;1.77;;;;;;;17.74;63.07;97604.50;4970613;28;21057;-77
2022/09/05 02:13:44;;;;;;;3.33;2.10;;;;;;;17.61;63.46;97602.53;4956887;28;20165;-77
2022/09/05 02:16:25;;;;;;;2.53;2.25;;;;;;;17.54;63.28;97609.97;4946417;28;20470;-75
2022/09/05 02:18:53;;;;;;;2.50;2.30;;;;;;;17.66;63.14;97601.69;4948104;28;20361;-75
2022/09/05 02:21:48;;;;;;;2.35;2.15;;;;;;;17.44;63.53;97604.81;4976764;28;21078;-74
2022/09/05 02:24:19;;;;;;;2.40;2.20;;;;;;;17.48;63.55;97603.19;4950789;28;20377;-75
2022/09/05 02:27:17;;;;;;;3.15;2.33;;;;;;;17.42;63.68;97603.22;4958891;28;20221;-75
2022/09/05 02:29:55;;;;;;;2.65;1.98;;;;;;;17.45;63.48;97596.63;4971250;28;20222;-75
2022/09/05 02:32:30;;;;;;;2.33;1.95;;;;;;;17.55;63.61;97601.81;4983600;28;20191;-75
2022/09/05 02:35:11;;;;;;;2.30;1.95;;;;;;;17.47;63.57;97588.47;4959895;28;20134;-75
2022/09/05 02:37:47;;;;;;;2.20;2.00;;;;;;;17.49;63.46;97591.59;4930029;28;20645;-75
2022/09/05 02:40:17;;;;;;;2.72;1.95;;;;;;;17.59;63.39;97587.00;4962322;28;20285;-75
2022/09/05 02:43:06;;;;;;;2.55;2.00;;;;;;;17.44;63.96;97591.66;4949908;28;20233;-75
2022/09/05 02:45:49;;;;;;;2.78;2.28;;;;;;;17.47;63.77;97588.47;4980904;28;20840;-74
2022/09/05 02:48:33;;;;;;;2.97;2.38;;;;;;;17.64;64.20;97594.06;4964602;28;20216;-75
2022/09/05 02:51:29;;;;;;;4.15;2.53;;;;;;;17.40;63.86;97591.44;4965518;28;20279;-75
2022/09/05 02:54:02;;;;;;;2.45;2.25;;;;;;;17.38;63.87;97586.44;4965109;28;20293;-74
2022/09/05 02:56:36;;;;;;;2.50;2.30;;;;;;;17.59;63.97;97591.50;4921414;28;20206;-74
2022/09/05 02:59:34;;;;;;;3.13;2.20;;;;;;;17.42;63.81;97587.44;4939824;28;20131;-75
2022/09/05 03:02:15;;;;;;;2.45;2.10;;;;;;;17.60;63.64;97591.22;4970383;28;20254;-75
2022/09/05 03:04:54;;;;;;;2.00;1.80;;;;;;;17.48;63.56;97584.75;4965510;28;20529;-75
2022/09/05 03:07:56;;;;;;;2.63;2.25;;;;;;;17.47;63.62;97591.88;4954665;28;20212;-75
2022/09/05 03:10:46;;;;;;;2.80;2.15;;;;;;;17.55;63.40;97586.00;4975248;28;20180;-75
2022/09/05 03:13:17;;;;;;;2.40;2.10;;;;;;;17.66;63.57;97586.69;4968071;28;20274;-75
2022/09/05 03:16:35;;;;;;;1.70;1.60;;;;;;;17.46;64.24;97592.16;4947387;28;20207;-75
2022/09/05 03:19:38;;;;;;;2.20;2.00;;;;;;;17.49;63.67;97591.59;4953025;28;20285;-75
2022/09/05 03:22:19;;;;;;;2.50;2.30;;;;;;;17.55;63.97;97598.41;4973491;28;20641;-75
2022/09/05 03:24:47;;;;;;;2.35;1.83;;;;;;;17.64;63.69;97594.06;4973546;28;20684;-75
2022/09/05 03:27:49;;;;;;;2.47;2.28;;;;;;;17.57;63.90;97591.78;4972382;28;20252;-75
2022/09/05 03:30:18;;;;;;;2.63;2.42;;;;;;;17.76;63.58;97591.84;4963827;28;20386;-75
2022/09/05 03:33:24;;;;;;;2.63;2.42;;;;;;;17.64;63.89;97594.06;4944371;28;20265;-75
2022/09/05 03:35:52;;;;;;;;;;;;;;;17.49;63.75;97581.06;4976181;28;20320;-75
2022/09/05 03:38:32;;;;;;;2.90;2.42;;;;;;;17.63;63.00;97592.50;4968627;28;20088;-75
2022/09/05 03:41:33;;;;;;;2.83;2.13;;;;;;;17.60;62.96;97579.91;4971003;28;20208;-75
2022/09/05 03:44:36;;;;;;;3.10;2.30;;;;;;;17.50;63.46;97577.38;4962697;28;20379;-77
2022/09/05 03:47:16;;;;;;;2.65;2.15;;;;;;;17.52;63.49;97585.78;4965827;28;20208;-75
2022/09/05 03:50:00;;;;;;;2.70;2.10;;;;;;;17.64;63.10;97588.81;4969348;28;20253;-75
2022/09/05 03:52:40;;;;;;;2.58;2.38;;;;;;;17.49;63.46;97584.47;4951966;28;20333;-75
2022/09/05 03:55:14;;;;;;;1.75;1.60;;;;;;;17.57;63.82;97588.38;4945597;28;20247;-75
2022/09/05 03:57:49;;;;;;;2.78;2.53;;;;;;;17.55;63.84;97585.22;4929678;28;20582;-75
2022/09/05 04:00:21;;;;;;;1.88;1.77;;;;;;;17.53;63.56;97587.34;4971943;28;20568;-75
2022/09/05 04:02:57;;;;;;;2.97;1.95;;;;;;;17.52;63.31;97591.81;4948166;28;20180;-75
2022/09/05 04:05:32;;;;;;;2.63;1.98;;;;;;;17.44;63.26;97594.28;4931548;28;20173;-74
2022/09/05 04:08:05;;;;;;;2.63;2.28;;;;;;;17.38;63.61;97602.22;4966001;28;20277;-75
2022/09/05 04:10:41;;;;;;;2.45;2.25;;;;;;;17.44;63.54;97605.59;4967704;28;20191;-75
2022/09/05 04:13:23;;;;;;;2.58;2.03;;;;;;;17.37;63.82;97600.66;4934469;28;20169;-75
2022/09/05 04:15:59;;;;;;;2.60;2.40;;;;;;;17.33;64.25;97602.28;4951559;28;20687;-75
2022/09/05 04:18:33;;;;;;;3.50;2.40;;;;;;;17.35;64.09;97597.50;4978025;28;20376;-75
2022/09/05 04:21:28;;;;;;;2.63;2.40;;;;;;;17.40;64.10;97601.94;4970627;28;20587;-75
2022/09/05 04:24:31;;;;;;;2.88;2.58;;;;;;;17.31;64.42;97601.78;4969274;28;20223;-75
2022/09/05 04:26:59;;;;;;;2.83;2.47;;;;;;;17.39;63.64;97603.81;4987948;28;20650;-75
2022/09/05 04:29:27;;;;;;;2.53;2.33;;;;;;;17.44;64.00;97599.53;4987223;28;20245;-75
2022/09/05 04:32:20;;;;;;;2.97;2.30;;;;;;;17.25;64.31;97600.22;4969534;28;20195;-75
2022/09/05 04:35:13;;;;;;;3.80;2.88;;;;;;;17.29;64.49;97613.63;4965873;28;20185;-75
2022/09/05 04:37:52;;;;;;;3.00;2.25;;;;;;;17.36;64.78;97607.00;4966046;28;20196;-75
2022/09/05 04:40:34;;;;;;;2.95;2.60;;;;;;;17.32;64.52;97616.47;4939249;28;20585;-75
2022/09/05 04:43:22;;;;;;;2.20;2.00;;;;;;;17.41;63.92;97606.16;4982332;28;20250;-74
2022/09/05 04:45:48;;;;;;;3.10;2.72;;;;;;;17.53;64.15;97614.47;4964434;28;20652;-75
2022/09/05 04:48:18;;;;;;;2.50;2.30;;;;;;;17.43;64.11;97617.19;4935992;28;20184;-75
2022/09/05 04:50:57;;;;;;;3.28;2.45;;;;;;;17.33;64.67;97612.81;4966162;28;20289;-75
2022/09/05 04:53:44;;;;;;;2.75;2.55;;;;;;;17.39;64.66;97619.59;4960358;28;20588;-75
2022/09/05 04:56:17;;;;;;;2.50;1.98;;;;;;;17.40;63.96;97621.16;4970234;28;20231;-75
2022/09/05 04:59:03;;;;;;;2.47;2.17;;;;;;;17.55;63.18;97622.88;4957831;28;20284;-74
2022/09/05 05:01:50;;;;;;;2.40;2.20;;;;;;;17.46;63.08;97621.91;4965330;28;20180;-75
2022/09/05 05:04:19;;;;;;;3.88;2.22;;;;;;;17.35;63.34;97620.44;4944732;28;20207;-75
2022/09/05 05:07:04;;;;;;;2.97;2.45;;;;;;;17.07;64.48;97629.84;4946306;28;20195;-75
2022/09/05 05:09:35;;;;;;;2.67;2.47;;;;;;;17.16;64.34;97634.25;4964998;28;20778;-75
2022/09/05 05:12:19;;;;;;;4.57;2.85;;;;;;;17.11;64.42;97630.88;4925031;28;20481;-74
2022/09/05 05:14:59;;;;;;;2.70;2.35;;;;;;;17.16;64.59;97634.25;4949956;28;20274;-76
2022/09/05 05:17:32;;;;;;;2.97;2.40;;;;;;;17.25;64.42;97631.81;4942128;28;20201;-75
2022/09/05 05:20:08;;;;;;;3.00;2.60;;;;;;;17.17;64.63;97633.22;4953349;28;20164;-75
2022/09/05 05:22:35;;;;;;;3.40;2.30;;;;;;;17.32;64.07;97645.44;4930874;28;20256;-75
2022/09/05 05:25:03;;;;;;;3.00;2.58;;;;;;;17.39;63.74;97643.28;4944756;28;20109;-75
2022/09/05 05:27:42;;;;;;;2.80;2.55;;;;;;;17.28;64.04;97643.66;4956666;28;20725;-75
2022/09/05 05:30:09;;;;;;;2.35;2.15;;;;;;;17.46;63.84;97655.34;4954577;28;20105;-75
2022/09/05 05:32:42;;;;;;;3.92;2.28;;;;;;;17.51;64.11;97647.38;4931449;28;20506;-75
2022/09/05 05:35:17;;;;;;;2.42;2.22;;;;;;;17.38;64.79;97649.59;4953746;28;21038;-75
2022/09/05 05:37:45;;;;;;;3.97;2.33;;;;;;;17.41;64.78;97646.44;4970687;28;20627;-75
2022/09/05 05:40:20;;;;;;;3.15;2.50;;;;;;;17.37;64.44;97648.03;4947443;28;20191;-75
2022/09/05 05:42:46;;;;;;;2.38;2.17;;;;;;;17.57;64.38;97652.34;4940729;28;20188;-74
2022/09/05 05:45:19;;;;;;;2.53;2.20;;;;;;;17.50;64.80;97656.38;4957706;28;20199;-75
2022/09/05 05:47:48;;;;;;;3.88;2.40;;;;;;;17.55;64.74;97651.06;4966090;28;20267;-75
2022/09/05 05:50:43;;;;;;;2.50;2.30;;;;;;;17.41;65.11;97648.28;4946736;28;20678;-75
2022/09/05 05:53:37;;;;;;;3.10;2.80;;;;;;;17.47;65.28;97651.66;4949122;28;20274;-75
2022/09/05 05:56:23;;;;;;;3.75;2.40;;;;;;;17.60;65.22;97651.78;4951423;28;20203;-75
2022/09/05 05:59:17;;;;;;;3.55;2.50;;;;;;;17.85;65.01;97647.31;4948154;28;20294;-75
2022/09/05 06:02:00;;;;;;;4.10;2.40;;;;;;;18.05;64.03;97661.38;4972017;28;20216;-74
2022/09/05 06:04:56;;;;;;;3.38;2.65;;;;;;;17.89;63.68;97664.19;4972320;28;20647;-75
2022/09/05 06:07:48;;;;;;;3.05;2.75;;;;;;;17.96;63.93;97655.94;4958546;28;20153;-75
2022/09/05 06:10:49;;;;;;;3.42;2.65;;;;;;;18.07;64.34;97656.59;4965251;28;20253;-75
2022/09/05 06:13:42;;;;;;;3.05;2.58;;;;;;;18.31;64.47;97665.28;4966585;28;20300;-75
2022/09/05 06:16:24;;;;;;;4.00;2.60;;;;;;;18.48;63.07;97674.56;4956191;28;20282;-77
2022/09/05 06:19:29;;;;;;;2.47;2.22;;;;;;;18.37;62.50;97673.94;4965665;28;20207;-77
2022/09/05 06:22:29;;;;;;;2.88;2.53;;;;;;;18.27;62.09;97671.41;4955526;28;20287;-77
2022/09/05 06:25:32;;;;;;;2.05;1.83;;;;;;;18.35;62.40;97670.75;4972994;28;20203;-75
2022/09/05 06:28:10;;;;;;;2.30;2.10;;;;;;;18.57;62.35;97672.09;4976995;28;20204;-74
2022/09/05 06:30:46;;;;;;;2.70;2.50;;;;;;;18.43;63.19;97672.78;4971282;28;20282;-75
2022/09/05 06:33:41;;;;;;;3.67;2.80;;;;;;;18.52;63.83;97668.47;4932077;28;20142;-75
2022/09/05 06:36:31;;;;;;;2.78;2.50;;;;;;;18.74;62.83;97669.75;4947090;28;20230;-75
2022/09/05 06:39:02;;;;;;;3.10;2.80;;;;;;;19.13;62.32;97673.97;4952426;28;20214;-75
2022/09/05 06:41:42;;;;;;;3.05;2.55;;;;;;;19.17;61.88;97667.03;4960679;28;20245;-75
2022/09/05 06:44:42;;;;;;;3.58;2.38;;;;;;;19.32;61.60;97660.72;4973971;28;20200;-74
2022/09/05 06:47:11;;;;;;;2.75;2.22;;;;;;;19.56;60.69;97676.44;4944889;28;20180;-76
2022/09/05 06:49:56;;;;;;;2.35;2.15;;;;;;;19.70;60.30;97676.47;4952713;28;20208;-75
2022/09/05 06:52:46;;;;;;;2.50;2.28;;;;;;;19.92;59.47;97673.19;4956146;28;20098;-75
2022/09/05 06:55:30;;;;;;;2.20;1.90;;;;;;;20.19;58.89;97674.28;4973954;28;20334;-76
2022/09/05 06:58:27;;;;;;;2.30;2.10;;;;;;;20.34;58.95;97681.09;4971251;28;20195;-75
2022/09/05 07:00:57;;;;;;;2.38;2.15;;;;;;;20.63;58.19;97675.53;4937987;28;20129;-75
2022/09/05 07:04:43;;;;;;;2.63;2.42;;;;;;;20.65;58.79;97678.66;4949659;28;20357;-75
2022/09/05 07:07:21;;;;;;;2.40;2.08;;;;;;;20.97;57.85;97676.13;4913550;28;20210;-75
2022/09/05 07:10:16;;;;;;;2.55;2.22;;;;;;;21.20;57.25;97676.91;4897586;28;20257;-75
2022/09/05 07:12:51;;;;;;;3.33;2.40;;;;;;;21.48;56.29;97682.88;4890911;28;20252;-75
2022/09/05 07:15:25;;;;;;;;;;;;;;;21.57;55.97;97680.28;4897385;28;20261;-76
2022/09/05 07:18:06;;;;;;;2.63;2.42;;;;;;;21.80;55.58;97675.72;4908838;28;20126;-75
2022/09/05 07:20:44;;;;;;;2.83;1.85;;;;;;;21.99;55.05;97688.75;4887319;28;20294;-76
2022/09/05 07:23:30;;;;;;;2.90;2.60;;;;;;;22.25;53.49;97676.34;4904381;28;20148;-75
2022/09/05 07:25:56;;;;;;;2.92;2.03;;;;;;;22.68;53.06;97685.50;4891124;28;20191;-75
2022/09/05 07:28:21;;;;;;;2.10;1.80;;;;;;;22.80;52.80;97690.22;4877703;28;20220;-76
2022/09/05 07:30:54;;;;;;;2.47;2.28;;;;;;;23.10;52.23;97695.69;4858905;28;20379;-76
2022/09/05 07:33:22;;;;;;;2.42;2.03;;;;;;;23.36;51.77;97693.03;4891856;28;20294;-76
2022/09/05 07:35:49;;;;;;;2.53;2.33;;;;;;;23.60;50.50;97699.72;4890159;28;20242;-75
2022/09/05 07:38:27;;;;;;;2.28;2.13;;;;;;;23.77;50.93;97696.19;4874919;28;20693;-75
2022/09/05 07:40:57;;;;;;;2.20;2.00;;;;;;;24.06;50.08;97701.63;4924560;28;20557;-76
2022/09/05 07:43:26;;;;;;;2.58;2.10;;;;;;;24.36;49.23;97701.63;4969127;28;20305;-76
2022/09/05 07:46:12;;;;;;;2.78;2.00;;;;;;;24.43;49.56;97701.88;4938219;28;20200;-78
2022/09/05 07:48:41;;;;;;;2.40;2.20;;;;;;;24.49;49.39;97703.25;4949993;28;20282;-76
2022/09/05 07:51:18;;;;;;;2.25;2.05;;;;;;;24.42;48.93;97700.34;4968957;28;20189;-75
2022/09/05 07:53:56;;;;;;;2.53;2.10;;;;;;;24.58;48.60;97699.81;4950806;28;20217;-75
2022/09/05 07:56:43;;;;;;;1.90;1.80;;;;;;;24.71;48.30;97700.66;4953679;28;20782;-76
2022/09/05 07:59:11;;;;;;;2.40;2.17;;;;;;;24.83;47.95;97703.38;4951471;28;20274;-75
2022/09/05 08:01:41;;;;;;;1.83;1.73;;;;;;;24.98;48.07;97704.69;4950549;28;20255;-75
2022/09/05 08:04:20;;;;;;;2.10;2.00;;;;;;;25.20;47.96;97703.56;4951575;28;20298;-76
2022/09/05 08:06:47;;;;;;;3.40;2.00;;;;;;;25.50;47.18;97706.91;4966856;28;20290;-76
2022/09/05 08:16:44;;;;;;;2.00;1.90;;;;;;;26.35;45.90;97705.44;4968848;28;20174;-76
2022/09/05 08:19:44;;;;;;;2.10;1.90;;;;;;;26.50;45.48;97706.66;4968072;28;20204;-75
2022/09/05 08:22:15;;;;;;;2.42;2.00;;;;;;;26.71;44.91;97705.78;4959658;28;20202;-76
2022/09/05 08:24:59;;;;;;;2.70;2.17;;;;;;;26.91;44.36;97701.38;4969735;28;20253;-76
2022/09/05 08:27:46;;;;;;;2.22;1.88;;;;;;;27.32;42.29;97696.81;4988275;28;20187;-76
2022/09/05 08:30:12;;;;;;;2.78;2.03;;;;;;;27.73;40.74;97691.34;4983283;28;20169;-75
2022/09/05 08:32:37;;;;;;;2.17;2.00;;;;;;;28.04;40.64;97693.25;4950029;28;20203;-76
2022/09/05 08:35:09;;;;;;;2.35;2.15;;;;;;;28.21;39.97;97695.56;4968201;28;20714;-75
2022/09/05 08:37:35;;;;;;;2.03;1.85;;;;;;;28.47;40.04;97702.25;4967960;28;20212;-75
2022/09/05 08:40:12;;;;;;;2.35;1.88;;;;;;;28.68;39.53;97703.88;4949590;28;20207;-76
2022/09/05 08:42:47;;;;;;;2.63;1.80;;;;;;;28.72;39.48;97705.50;4949824;28;20196;-76
2022/09/05 08:45:34;;;;;;;2.33;2.13;;;;;;;29.09;39.33;97697.03;4956766;28;20337;-75
2022/09/05 08:47:59;;;;;;;1.92;1.83;;;;;;;29.18;38.92;97693.38;4933164;28;20234;-76
2022/09/05 08:50:34;;;;;;;2.33;2.13;;;;;;;29.19;38.49;97694.94;4932957;28;20724;-76
2022/09/05 08:53:08;;;;;;;;;;;;;;;29.37;37.66;97696.03;4949994;28;20173;-76
2022/09/05 08:55:42;;;;;;;2.10;2.00;;;;;;;29.69;38.01;97701.97;4949564;28;20515;-75
2022/09/05 08:58:32;;;;;;;2.40;2.30;;;;;;;29.81;37.31;97697.59;4949362;28;20270;-75
2022/09/05 09:01:12;;;;;;;2.30;2.15;;;;;;;29.72;36.65;97689.75;4949611;28;20294;-75
2022/09/05 09:03:52;;;;;;;2.03;1.80;;;;;;;29.80;36.46;97685.28;4967418;28;20239;-75
2022/09/05 09:06:21;;;;;;;2.40;2.05;;;;;;;30.18;35.62;97688.97;4967616;28;20775;-76
2022/09/05 09:08:49;;;;;;;2.40;2.20;;;;;;;30.30;35.12;97685.28;4952512;28;20196;-76
2022/09/05 09:11:37;;;;;;;2.00;1.88;;;;;;;30.27;37.34;97694.84;4951515;28;20219;-75
2022/09/05 09:14:24;;;;;;;2.22;2.13;;;;;;;30.39;35.39;97685.81;4954304;28;20711;-76
2022/09/05 09:16:52;;;;;;;2.25;2.05;;;;;;;30.59;35.89;97679.19;4986460;28;20229;-75
2022/09/05 09:19:23;;;;;;;3.20;2.25;;;;;;;30.33;35.63;97671.91;4986315;28;20196;-75
2022/09/05 09:22:13;;;;;;;2.30;2.10;;;;;;;30.21;36.96;97666.72;4968161;28;20236;-76
2022/09/05 09:25:01;;;;;;;2.30;2.20;;;;;;;30.10;37.39;97676.56;4967978;28;20293;-75
2022/09/05 09:27:37;;;;;;;2.50;2.30;;;;;;;30.26;35.74;97674.47;4951555;28;20178;-76
2022/09/05 09:30:05;;;;;;;2.40;2.20;;;;;;;30.68;34.30;97670.06;4951266;28;20364;-76
2022/09/05 09:32:39;;;;;;;2.38;2.05;;;;;;;30.86;34.76;97668.34;4968356;28;20345;-76
2022/09/05 09:35:22;;;;;;;2.28;2.03;;;;;;;31.25;34.68;97659.19;4968022;28;20281;-75
2022/09/05 09:38:15;;;;;;;2.47;2.30;;;;;;;31.11;35.60;97662.53;4967983;28;20207;-76
2022/09/05 09:41:15;;;;;;;2.42;2.22;;;;;;;31.46;33.77;97661.31;4968772;28;20659;-76
2022/09/05 09:43:57;;;;;;;2.10;1.85;;;;;;;31.78;32.26;97652.78;4967369;28;20169;-76
2022/09/05 09:46:36;;;;;;;2.05;1.95;;;;;;;31.38;32.63;97657.78;4963029;28;20706;-76
2022/09/05 09:49:06;;;;;;;2.25;2.10;;;;;;;31.83;32.03;97649.72;4966841;28;20199;-76
2022/09/05 09:52:20;;;;;;;1.80;1.70;;;;;;;31.54;33.66;97647.56;4967456;28;20234;-75
2022/09/05 09:54:55;;;;;;;2.03;1.92;;;;;;;31.75;31.84;97646.19;4961250;28;20214;-76
2022/09/05 09:57:50;;;;;;;1.80;1.70;;;;;;;31.75;33.48;97651.59;4966547;28;20768;-75
2022/09/05 10:00:19;;;;;;;2.40;2.30;;;;;;;31.86;32.18;97638.97;4985271;28;20156;-75
2022/09/05 10:03:07;;;;;;;2.10;1.98;;;;;;;32.02;31.96;97649.47;4934340;28;20211;-76
2022/09/05 10:05:54;;;;;;;2.60;2.40;;;;;;;32.33;31.87;97641.97;4985892;28;20637;-75
2022/09/05 10:08:56;;;;;;;1.90;1.80;;;;;;;32.51;31.54;97644.78;4985166;28;20190;-75
2022/09/05 10:12:01;;;;;;;2.10;1.98;;;;;;;32.26;32.06;97637.31;4985602;28;20679;-76
2022/09/05 10:14:35;;;;;;;2.75;2.17;;;;;;;32.26;32.30;97637.31;4985486;28;20289;-76
2022/09/05 10:17:34;;;;;;;2.03;1.92;;;;;;;32.11;32.13;97627.59;4985167;28;20198;-76
2022/09/05 10:20:16;;;;;;;1.95;1.85;;;;;;;32.34;30.56;97626.56;4950266;28;20187;-76
2022/09/05 10:23:10;;;;;;;2.08;1.98;;;;;;;32.23;30.67;97621.91;4950308;28;20292;-75
2022/09/05 10:25:35;;;;;;;2.35;2.15;;;;;;;32.27;31.87;97621.94;4934290;28;20277;-75
2022/09/05 10:28:06;;;;;;;2.15;1.42;;;;;;;32.56;29.53;97620.16;4984811;28;20249;-76
2022/09/05 10:30:44;;;;;;;1.58;1.48;;;;;;;32.69;27.21;97625.97;4966614;28;20247;-75
2022/09/05 10:33:16;;;;;;;1.55;1.45;;;;;;;32.74;26.00;97619.47;4966805;28;20191;-76
2022/09/05 10:35:45;;;;;;;1.50;1.40;;;;;;;32.76;25.19;97612.50;4965067;28;20423;-76
2022/09/05 10:38:16;;;;;;;1.00;1.00;;;;;;;32.98;24.42;97615.28;4947166;28;20765;-75
2022/09/05 10:40:45;;;;;;;1.33;1.10;;;;;;;32.89;23.91;97612.19;5003199;28;20617;-75
2022/09/05 10:43:34;;;;;;;2.40;1.23;;;;;;;32.85;23.10;97609.44;4969597;28;20206;-75
2022/09/05 10:46:44;;;;;;;1.45;1.20;;;;;;;33.45;23.45;97604.56;4953168;28;20202;-76
2022/09/05 10:49:13;;;;;;;1.40;1.30;;;;;;;33.38;25.42;97599.91;4941950;28;20219;-75
2022/09/05 10:51:48;;;;;;;1.58;1.40;;;;;;;33.54;24.49;97604.94;4951556;28;20299;-75
2022/09/05 10:54:44;;;;;;;1.92;1.83;;;;;;;33.30;23.65;97593.75;4967964;28;20364;-76
2022/09/05 10:57:54;;;;;;;1.48;1.27;;;;;;;33.17;23.04;97598.75;4951654;28;20277;-76
2022/09/05 11:00:37;;;;;;;1.45;1.30;;;;;;;33.32;22.71;97601.47;4975203;28;20251;-75
2022/09/05 11:03:17;;;;;;;1.48;1.38;;;;;;;33.53;22.37;97598.00;4984643;28;20262;-75
2022/09/05 11:05:56;;;;;;;1.55;1.48;;;;;;;33.33;25.20;97587.59;4952372;28;20179;-75
2022/09/05 11:08:44;;;;;;;1.88;1.40;;;;;;;33.33;25.17;97592.19;4966763;28;20648;-76
2022/09/05 11:11:17;;;;;;;1.40;1.30;;;;;;;33.91;24.87;97592.94;4950790;28;20172;-75
2022/09/05 11:13:47;;;;;;;1.70;1.60;;;;;;;34.21;24.04;97592.53;4934345;28;20108;-75
2022/09/05 11:16:40;;;;;;;1.92;1.40;;;;;;;34.62;23.65;97593.91;4968588;28;20296;-75
2022/09/05 11:19:19;;;;;;;1.90;1.80;;;;;;;34.70;23.90;97588.06;4967974;28;20640;-75
2022/09/05 11:21:51;;;;;;;1.98;1.88;;;;;;;34.86;23.78;97595.72;4968110;28;20301;-75
2022/09/05 11:24:47;;;;;;;1.92;1.83;;;;;;;34.73;23.32;97583.81;4951780;28;20360;-76
2022/09/05 11:27:32;;;;;;;1.60;1.50;;;;;;;34.89;24.14;97578.69;4950230;28;20190;-75
2022/09/05 11:30:13;;;;;;;1.60;1.50;;;;;;;35.18;23.30;97578.50;4968360;28;20215;-75
2022/09/05 11:32:41;;;;;;;1.48;1.40;;;;;;;34.10;23.71;97576.31;4988219;28;20152;-76
2022/09/05 11:35:16;;;;;;;2.00;1.73;;;;;;;34.16;24.29;97582.09;4968713;28;20281;-76
2022/09/05 11:38:10;;;;;;;1.48;1.38;;;;;;;33.84;25.08;97582.16;4967045;28;20363;-75
2022/09/05 11:40:38;;;;;;;1.77;1.67;;;;;;;34.41;24.32;97578.53;4984422;28;20160;-75
2022/09/05 11:43:28;;;;;;;1.80;1.70;;;;;;;34.71;23.63;97583.44;4950213;28;20257;-75
2022/09/05 11:46:07;;;;;;;1.63;1.58;;;;;;;35.17;21.67;97571.53;4985054;28;20318;-76
2022/09/05 11:48:48;;;;;;;1.92;1.83;;;;;;;34.15;23.50;97573.22;4968218;28;20955;-77
2022/09/05 11:51:35;;;;;;;1.73;1.63;;;;;;;33.29;24.11;97567.91;4973534;28;20206;-76
2022/09/05 11:54:29;;;;;;;1.88;1.77;;;;;;;33.51;23.72;97567.91;4970285;28;20179;-76
2022/09/05 11:57:22;;;;;;;1.77;1.58;;;;;;;32.82;24.08;97569.78;4949909;28;20211;-76
2022/09/05 12:00:00;;;;;;;1.95;1.70;;;;;;;32.39;25.17;97559.63;4952775;28;20564;-76
2022/09/05 12:02:25;;;;;;;1.75;1.65;;;;;;;32.42;25.10;97566.16;4988643;28;20203;-76
2022/09/05 12:05:28;;;;;;;1.77;1.60;;;;;;;32.32;25.15;97558.81;4986926;28;20195;-76
2022/09/05 12:08:21;;;;;;;1.70;1.60;;;;;;;32.39;23.81;97558.84;4945067;28;20730;-75
2022/09/05 12:11:35;;;;;;;1.95;1.85;;;;;;;32.90;23.00;97552.44;4988483;28;20199;-75
2022/09/05 12:14:22;;;;;;;1.63;1.63;;;;;;;33.71;22.14;97552.13;4971152;28;20686;-75
2022/09/05 12:17:24;;;;;;;1.95;1.85;;;;;;;34.40;20.90;97542.63;4988377;28;20212;-76
2022/09/05 12:23:40;;;;;;;2.20;1.67;;;;;;;34.02;22.09;97539.66;4990165;28;20327;-75
2022/09/05 12:26:19;;;;;;;1.60;1.50;;;;;;;33.50;22.13;97528.56;4984838;28;20207;-75
2022/09/05 12:28:44;;;;;;;1.50;1.40;;;;;;;33.27;23.64;97532.44;4969700;28;20270;-76
2022/09/05 12:31:15;;;;;;;1.52;1.42;;;;;;;33.27;22.71;97532.44;4953263;28;20324;-76
2022/09/05 12:33:50;;;;;;;2.13;1.65;;;;;;;32.58;22.76;97528.88;4952104;28;20195;-76
2022/09/05 12:36:33;;;;;;;1.60;1.50;;;;;;;32.78;23.40;97521.25;4987904;28;20682;-76
2022/09/05 12:39:25;;;;;;;1.63;1.52;;;;;;;32.18;24.84;97522.56;4970422;28;20309;-75
2022/09/05 12:42:02;;;;;;;1.50;1.50;;;;;;;32.55;24.61;97524.22;4953076;28;20645;-76
2022/09/05 12:44:46;;;;;;;1.88;1.73;;;;;;;32.45;24.53;97520.34;4969464;28;20160;-75
2022/09/05 12:47:15;;;;;;;1.77;1.30;;;;;;;32.45;24.42;97535.75;4987446;28;20188;-75
2022/09/05 12:49:44;;;;;;;2.05;1.50;;;;;;;32.36;24.56;97528.03;4952569;28;20376;-76
2022/09/05 12:52:14;;;;;;;1.20;1.20;;;;;;;32.37;23.26;97532.28;4969115;28;20574;-75